Time;durP1;ratioP1;P1;durP2;ratioP2;P2;SDS_P1;SDS_P2;PMS_P1;PMS_P2;Temp;Humidity;BMP_temperature;BMP_pressure;BME280_temperature;BME280_humidity;BME280_pressure;Samples;Min_cycle;Max_cycle;Signal;HPM_P1;HPM_P2
2022/07/21 00:01:36;;;;;;;7.40;6.65;;;19.20;99.90;;;;;;5077255;28;20033;-63
2022/07/21 00:04:02;;;;;;;7.47;6.68;;;19.00;99.90;;;;;;5077526;28;20047;-63
2022/07/21 00:06:27;;;;;;;7.97;6.90;;;19.00;99.90;;;;;;5077259;28;20064;-64
2022/07/21 00:08:56;;;;;;;7.75;7.05;;;19.00;99.90;;;;;;5077053;28;20173;-63
2022/07/21 00:11:22;;;;;;;8.60;7.85;;;19.00;99.90;;;;;;5077673;28;20089;-62
2022/07/21 00:13:48;;;;;;;10.23;8.15;;;19.00;99.90;;;;;;5077417;28;20028;-64
2022/07/21 00:16:14;;;;;;;9.05;7.85;;;19.00;99.90;;;;;;5077708;28;20127;-64
2022/07/21 00:18:40;;;;;;;9.40;7.97;;;19.00;99.90;;;;;;5076943;28;20123;-64
2022/07/21 00:21:06;;;;;;;8.85;7.85;;;19.00;99.90;;;;;;5077084;28;20064;-63
2022/07/21 00:23:32;;;;;;;12.82;8.13;;;19.00;99.90;;;;;;5076962;28;20115;-64
2022/07/21 00:25:57;;;;;;;8.60;7.47;;;19.00;99.90;;;;;;5077033;28;20102;-64
2022/07/21 00:28:23;;;;;;;7.95;6.95;;;18.90;99.90;;;;;;5077270;28;20049;-64
2022/07/21 00:30:49;;;;;;;7.88;7.07;;;18.90;99.90;;;;;;5077494;28;20060;-63
2022/07/21 00:33:15;;;;;;;8.07;6.88;;;18.90;99.90;;;;;;5076933;28;20439;-64
2022/07/21 00:35:41;;;;;;;7.55;6.80;;;18.90;99.90;;;;;;5075637;28;20028;-63
2022/07/21 00:38:06;;;;;;;7.72;6.63;;;18.90;99.90;;;;;;5075895;28;20068;-65
2022/07/21 00:40:33;;;;;;;7.53;6.75;;;19.00;99.90;;;;;;5077481;28;20284;-65
2022/07/21 00:42:59;;;;;;;8.52;6.40;;;19.00;99.90;;;;;;5076028;28;20032;-65
2022/07/21 00:45:25;;;;;;;6.60;5.70;;;18.90;99.90;;;;;;5076873;28;20043;-62
2022/07/21 00:47:50;;;;;;;7.18;5.22;;;18.90;99.90;;;;;;5076849;28;20048;-64
2022/07/21 00:50:19;;;;;;;5.93;5.40;;;19.00;99.90;;;;;;5076750;28;20035;-64
2022/07/21 00:52:46;;;;;;;6.13;5.53;;;19.00;99.90;;;;;;5076728;28;20025;-62
2022/07/21 00:55:15;;;;;;;6.55;5.70;;;19.20;99.90;;;;;;5075905;28;20290;-63
2022/07/21 00:57:41;;;;;;;5.63;5.07;;;19.40;99.90;;;;;;5076548;28;20044;-62
2022/07/21 01:00:11;;;;;;;9.88;5.60;;;19.20;99.90;;;;;;5076817;28;20303;-64
2022/07/21 01:02:37;;;;;;;7.07;5.68;;;19.10;99.90;;;;;;5076697;28;20147;-64
2022/07/21 01:05:14;;;;;;;6.20;5.60;;;19.10;99.90;;;;;;5076584;28;20363;-63
2022/07/21 01:07:48;;;;;;;6.20;5.53;;;19.00;99.90;;;;;;5076573;28;20029;-62
2022/07/21 01:10:16;;;;;;;7.90;6.25;;;18.90;99.90;;;;;;5076478;28;20119;-65
2022/07/21 01:12:43;;;;;;;8.95;6.30;;;19.00;99.90;;;;;;5076515;28;20427;-63
2022/07/21 01:15:11;;;;;;;8.60;6.90;;;19.10;99.90;;;;;;5076444;28;20052;-63
2022/07/21 01:17:38;;;;;;;6.75;6.15;;;19.10;99.90;;;;;;5076766;28;20040;-64
2022/07/21 01:20:06;;;;;;;8.80;6.38;;;19.00;99.90;;;;;;5076485;28;20025;-62
2022/07/21 01:22:34;;;;;;;6.30;5.80;;;18.90;99.90;;;;;;5076486;28;20404;-62
2022/07/21 01:25:00;;;;;;;8.20;6.70;;;18.80;99.90;;;;;;5076346;28;20111;-62
2022/07/21 01:27:27;;;;;;;7.65;6.60;;;18.80;99.90;;;;;;5076406;28;20163;-63
2022/07/21 01:29:54;;;;;;;7.75;6.93;;;18.60;99.90;;;;;;5076283;28;20047;-62
2022/07/21 01:32:19;;;;;;;7.28;6.57;;;18.60;99.90;;;;;;5076306;28;20036;-62
2022/07/21 01:34:46;;;;;;;7.50;6.80;;;18.60;99.90;;;;;;5076257;28;20021;-62
2022/07/21 01:37:12;;;;;;;6.60;5.93;;;18.60;99.90;;;;;;5075542;28;20392;-64
2022/07/21 01:42:22;;;;;;;9.80;7.40;;;18.70;99.90;;;;;;5076576;28;20078;-63
2022/07/21 01:44:49;;;;;;;7.57;6.78;;;18.70;99.90;;;;;;5075505;28;20036;-65
2022/07/21 01:47:17;;;;;;;10.30;7.30;;;18.70;99.90;;;;;;5076856;28;20463;-64
2022/07/21 01:49:44;;;;;;;8.23;6.88;;;18.70;99.90;;;;;;5079606;28;20028;-63
2022/07/21 01:52:10;;;;;;;9.23;6.68;;;18.70;99.90;;;;;;5079669;28;20388;-63
2022/07/21 01:54:36;;;;;;;10.90;6.70;;;18.60;99.90;;;;;;5079614;28;20102;-63
2022/07/21 01:57:02;;;;;;;9.32;7.35;;;18.50;99.90;;;;;;5079430;28;20118;-62
2022/07/21 01:59:28;;;;;;;10.48;6.72;;;18.40;99.90;;;;;;5078910;28;20040;-65
2022/07/21 02:01:54;;;;;;;10.15;6.63;;;18.30;99.90;;;;;;5080135;28;20054;-62
2022/07/21 02:04:20;;;;;;;7.30;6.53;;;18.40;99.90;;;;;;5079375;28;20029;-61
2022/07/21 02:06:45;;;;;;;9.88;6.45;;;18.40;99.90;;;;;;5079241;28;20029;-61
2022/07/21 02:09:11;;;;;;;10.23;6.57;;;18.40;99.90;;;;;;5079673;28;20141;-64
2022/07/21 02:11:38;;;;;;;8.43;6.25;;;18.40;99.90;;;;;;5079908;28;20024;-62
2022/07/21 02:14:04;;;;;;;8.70;6.45;;;18.50;99.90;;;;;;5079240;28;20297;-65
2022/07/21 02:16:30;;;;;;;7.72;5.93;;;18.50;99.90;;;;;;5079844;28;20025;-64
2022/07/21 02:18:56;;;;;;;7.38;5.70;;;18.50;99.90;;;;;;5079248;28;20028;-64
2022/07/21 02:21:21;;;;;;;8.98;5.80;;;18.60;99.90;;;;;;5078463;28;20056;-64
2022/07/21 02:23:47;;;;;;;10.63;6.20;;;18.60;99.90;;;;;;5078438;28;20032;-62
2022/07/21 02:26:13;;;;;;;8.15;5.68;;;18.50;99.90;;;;;;5079681;28;20056;-62
2022/07/21 02:28:39;;;;;;;9.15;5.95;;;18.50;99.90;;;;;;5078915;28;20121;-64
2022/07/21 02:31:06;;;;;;;9.55;6.05;;;18.50;99.90;;;;;;5079049;28;20322;-62
2022/07/21 02:33:32;;;;;;;5.93;5.30;;;18.50;99.90;;;;;;5078873;28;20040;-62
2022/07/21 02:35:58;;;;;;;6.78;5.53;;;18.60;99.90;;;;;;5078891;28;20400;-62
2022/07/21 02:38:24;;;;;;;9.82;5.25;;;18.70;99.90;;;;;;5078993;28;20414;-63
2022/07/21 02:40:50;;;;;;;8.50;5.00;;;18.60;99.90;;;;;;5078044;28;20034;-65
2022/07/21 02:43:16;;;;;;;8.80;4.93;;;18.70;99.90;;;;;;5078732;28;20277;-63
2022/07/21 02:45:43;;;;;;;7.25;5.18;;;18.80;99.90;;;;;;5078715;28;20039;-64
2022/07/21 02:48:12;;;;;;;7.20;5.20;;;18.80;99.90;;;;;;5077937;28;20044;-63
2022/07/21 02:50:40;;;;;;;7.55;4.68;;;18.70;99.90;;;;;;5078597;28;20040;-63
2022/07/21 02:53:25;;;;;;;6.35;4.32;;;18.70;99.90;;;;;;5078463;28;20024;-64
2022/07/21 02:55:52;;;;;;;7.63;4.68;;;18.70;99.90;;;;;;5078872;28;20135;-63
2022/07/21 02:58:23;;;;;;;7.43;4.78;;;18.70;99.90;;;;;;5078405;28;20040;-65
2022/07/21 03:01:01;;;;;;;7.40;5.00;;;18.80;99.90;;;;;;5077747;28;20032;-65
2022/07/21 03:03:29;;;;;;;9.18;4.90;;;18.70;99.90;;;;;;5078708;28;20484;-63
2022/07/21 03:05:55;;;;;;;7.63;4.80;;;18.70;99.90;;;;;;5078302;28;20036;-62
2022/07/21 03:08:22;;;;;;;11.55;4.78;;;18.60;99.90;;;;;;5078166;28;20032;-64
2022/07/21 03:10:48;;;;;;;8.57;5.80;;;18.60;99.90;;;;;;5078270;28;20020;-64
2022/07/21 03:13:14;;;;;;;9.20;5.22;;;18.50;99.90;;;;;;5078508;28;20415;-63
2022/07/21 03:15:40;;;;;;;7.55;5.40;;;18.40;99.90;;;;;;5077445;28;20396;-62
2022/07/21 03:18:06;;;;;;;9.32;5.53;;;18.40;99.90;;;;;;5078562;28;20025;-63
2022/07/21 03:20:35;;;;;;;8.57;5.25;;;18.40;99.90;;;;;;5078074;28;20406;-63
2022/07/21 03:23:01;;;;;;;9.63;5.75;;;18.30;99.90;;;;;;5060722;28;20028;-62
2022/07/21 03:25:27;;;;;;;12.18;6.28;;;18.30;99.90;;;;;;5077902;28;20051;-64
2022/07/21 03:27:53;;;;;;;9.65;5.50;;;18.40;99.90;;;;;;5077877;28;20098;-63
2022/07/21 03:30:21;;;;;;;11.70;6.10;;;18.40;99.90;;;;;;5077763;28;20056;-64
2022/07/21 03:32:48;;;;;;;8.35;6.00;;;18.30;99.90;;;;;;5077737;28;20105;-62
2022/07/21 03:35:14;;;;;;;9.57;6.03;;;18.40;99.90;;;;;;5077829;28;20111;-64
2022/07/21 03:37:54;;;;;;;9.57;5.63;;;18.50;99.90;;;;;;5077646;28;20024;-62
2022/07/21 03:40:23;;;;;;;13.85;6.07;;;18.60;99.90;;;;;;5077756;28;20064;-63
2022/07/21 03:42:54;;;;;;;9.02;6.65;;;18.60;99.90;;;;;;5077645;28;20032;-63
2022/07/21 03:45:21;;;;;;;9.75;5.93;;;18.50;99.90;;;;;;5077531;28;20107;-62
2022/07/21 03:47:47;;;;;;;9.25;6.43;;;18.50;99.90;;;;;;5077999;28;20048;-62
2022/07/21 03:50:14;;;;;;;11.00;6.30;;;18.50;99.90;;;;;;5077385;28;20389;-63
2022/07/21 03:52:40;;;;;;;9.80;6.40;;;18.40;99.90;;;;;;5077379;28;20040;-62
2022/07/21 03:55:09;;;;;;;8.05;5.45;;;18.40;99.90;;;;;;5076482;28;20031;-62
2022/07/21 03:57:43;;;;;;;8.82;6.25;;;18.40;99.90;;;;;;5077174;28;20049;-62
2022/07/21 04:00:12;;;;;;;8.05;6.95;;;18.40;99.90;;;;;;5076531;28;20291;-63
2022/07/21 04:02:38;;;;;;;9.85;6.90;;;18.40;99.90;;;;;;5077655;28;20040;-63
2022/07/21 04:05:04;;;;;;;11.75;6.68;;;18.50;99.90;;;;;;5077129;28;20048;-62
2022/07/21 04:07:30;;;;;;;10.35;7.03;;;18.50;99.90;;;;;;5077201;28;20033;-61
2022/07/21 04:09:56;;;;;;;9.93;6.90;;;18.60;99.90;;;;;;5077222;28;20133;-62
2022/07/21 04:12:29;;;;;;;11.25;7.18;;;18.50;99.90;;;;;;5077116;28;20032;-63
2022/07/21 04:14:55;;;;;;;11.52;7.18;;;18.60;99.90;;;;;;5077069;28;20430;-63
2022/07/21 04:17:21;;;;;;;11.80;6.60;;;18.60;99.90;;;;;;5077039;28;20024;-62
2022/07/21 04:19:47;;;;;;;12.30;7.45;;;18.60;99.90;;;;;;5076934;28;20413;-62
2022/07/21 04:22:13;;;;;;;14.70;7.38;;;18.50;99.90;;;;;;5076966;28;20415;-62
2022/07/21 04:24:39;;;;;;;12.48;8.25;;;18.50;99.90;;;;;;5076961;28;20036;-62
2022/07/21 04:27:05;;;;;;;10.88;8.13;;;18.50;99.90;;;;;;5076980;28;20067;-62
2022/07/21 04:29:30;;;;;;;13.65;9.13;;;18.50;99.90;;;;;;5076999;28;20392;-63
2022/07/21 04:31:56;;;;;;;12.85;8.68;;;18.50;99.90;;;;;;5076907;28;20028;-61
2022/07/21 04:34:22;;;;;;;13.30;8.60;;;18.60;99.90;;;;;;5077075;28;20101;-62
2022/07/21 04:36:48;;;;;;;14.75;8.90;;;18.60;99.90;;;;;;5076633;28;20085;-63
2022/07/21 04:39:13;;;;;;;13.32;8.60;;;18.60;99.90;;;;;;5075999;28;20096;-63
2022/07/21 04:41:39;;;;;;;12.70;8.82;;;18.60;99.90;;;;;;5076838;28;20147;-62
2022/07/21 04:44:06;;;;;;;13.27;8.90;;;18.70;99.90;;;;;;5076725;28;20396;-62
2022/07/21 04:46:32;;;;;;;12.20;8.55;;;18.70;99.90;;;;;;5076708;28;20041;-63
2022/07/21 04:48:58;;;;;;;17.20;10.68;;;18.90;99.90;;;;;;5076625;28;20047;-63
2022/07/21 04:51:23;;;;;;;14.00;9.70;;;18.80;99.90;;;;;;5076869;28;20408;-63
2022/07/21 04:53:49;;;;;;;13.60;9.70;;;18.80;99.90;;;;;;5076742;28;20025;-63
2022/07/21 04:56:15;;;;;;;15.82;10.30;;;18.90;99.90;;;;;;5076487;28;20049;-62
2022/07/21 04:58:41;;;;;;;16.23;10.90;;;18.80;99.90;;;;;;5075969;28;20032;-61
2022/07/21 05:01:06;;;;;;;18.92;10.82;;;18.80;99.90;;;;;;5076475;28;20029;-63
2022/07/21 05:03:32;;;;;;;15.10;10.65;;;18.90;99.90;;;;;;5076545;28;20044;-64
2022/07/21 05:05:58;;;;;;;15.43;9.98;;;19.00;99.90;;;;;;5077160;28;20395;-63
2022/07/21 05:08:26;;;;;;;13.20;10.35;;;19.00;99.90;;;;;;5076501;28;20073;-63
2022/07/21 05:10:52;;;;;;;13.68;10.32;;;19.00;99.90;;;;;;5075849;28;20324;-63
2022/07/21 05:13:18;;;;;;;15.52;11.07;;;19.20;99.90;;;;;;5076544;28;20031;-63
2022/07/21 05:15:43;;;;;;;17.75;12.10;;;19.20;99.90;;;;;;5077003;28;20020;-64
2022/07/21 05:18:09;;;;;;;15.68;11.50;;;19.00;99.90;;;;;;5059005;28;20044;-63
2022/07/21 05:20:35;;;;;;;18.80;12.68;;;19.00;99.90;;;;;;5075791;28;20330;-66
2022/07/21 05:23:01;;;;;;;15.18;11.95;;;19.10;99.90;;;;;;5077945;28;20032;-64
2022/07/21 05:25:28;;;;;;;19.33;12.73;;;19.10;99.90;;;;;;5080155;28;20027;-62
2022/07/21 05:27:54;;;;;;;18.92;12.52;;;18.90;99.90;;;;;;5080617;28;20033;-66
2022/07/21 05:30:20;;;;;;;21.48;13.77;;;18.90;99.90;;;;;;5082382;28;20032;-68
2022/07/21 05:32:46;;;;;;;18.00;13.65;;;18.90;99.90;;;;;;5082235;28;20031;-67
2022/07/21 05:35:12;;;;;;;21.30;15.18;;;19.00;99.90;;;;;;5080353;28;20036;-65
2022/07/21 05:37:39;;;;;;;20.35;14.95;;;18.70;99.90;;;;;;5080023;28;20044;-64
2022/07/21 05:40:06;;;;;;;22.80;16.15;;;18.60;99.90;;;;;;5079675;28;20063;-68
2022/07/21 05:42:33;;;;;;;21.40;16.40;;;18.50;99.90;;;;;;5079080;28;20040;-64
2022/07/21 05:44:58;;;;;;;25.40;16.77;;;18.30;99.90;;;;;;5079833;28;20044;-63
2022/07/21 05:47:24;;;;;;;22.73;17.55;;;18.20;99.90;;;;;;5079071;28;20036;-64
2022/07/21 05:49:50;;;;;;;23.65;18.23;;;18.10;99.90;;;;;;5079594;28;20032;-64
2022/07/21 05:52:16;;;;;;;25.20;19.35;;;18.10;99.90;;;;;;5080036;28;20112;-66
2022/07/21 05:54:41;;;;;;;24.88;19.08;;;18.10;99.90;;;;;;5079584;28;20036;-72
2022/07/21 05:57:07;;;;;;;25.92;19.52;;;18.20;99.90;;;;;;5079672;28;20316;-69
2022/07/21 05:59:33;;;;;;;27.67;19.67;;;18.10;99.90;;;;;;5079712;28;20113;-68
2022/07/21 06:01:59;;;;;;;30.00;19.88;;;18.10;99.90;;;;;;5079555;28;20043;-67
2022/07/21 06:04:24;;;;;;;28.42;20.88;;;18.10;99.90;;;;;;5079611;28;20033;-69
2022/07/21 06:06:52;;;;;;;29.45;20.67;;;18.10;99.90;;;;;;5062334;28;20467;-69
2022/07/21 06:09:18;;;;;;;28.00;21.33;;;18.10;99.90;;;;;;5080197;28;20032;-73
2022/07/21 06:11:44;;;;;;;28.38;22.52;;;18.20;99.90;;;;;;5080715;28;20258;-73
2022/07/21 06:14:10;;;;;;;28.58;21.45;;;18.30;99.90;;;;;;5080569;28;20040;-66
2022/07/21 06:16:36;;;;;;;31.20;22.75;;;18.30;99.90;;;;;;5078667;28;20404;-66
2022/07/21 06:19:02;;;;;;;30.88;22.73;;;18.40;99.90;;;;;;5078373;28;20040;-65
2022/07/21 06:21:28;;;;;;;25.70;21.08;;;18.40;99.90;;;;;;5079628;28;20051;-61
2022/07/21 06:23:54;;;;;;;24.88;21.25;;;18.30;99.90;;;;;;5079195;28;20338;-61
2022/07/21 06:26:20;;;;;;;28.05;22.08;;;18.30;99.90;;;;;;5079162;28;20036;-60
2022/07/21 06:28:45;;;;;;;25.60;21.58;;;18.30;99.90;;;;;;5079353;28;20036;-61
2022/07/21 06:31:11;;;;;;;25.02;20.23;;;18.30;99.90;;;;;;5079052;28;20096;-61
2022/07/21 06:33:37;;;;;;;27.77;21.77;;;18.30;99.90;;;;;;5078219;28;20032;-65
2022/07/21 06:36:03;;;;;;;26.10;20.88;;;18.30;99.90;;;;;;5078118;28;20044;-67
2022/07/21 06:38:29;;;;;;;27.88;20.25;;;18.30;99.90;;;;;;5078959;28;20056;-66
2022/07/21 06:40:54;;;;;;;29.63;21.27;;;18.20;99.90;;;;;;5078884;28;20025;-62
2022/07/21 06:43:20;;;;;;;26.23;20.33;;;18.20;99.90;;;;;;5078744;28;20024;-61
2022/07/21 06:45:46;;;;;;;25.35;19.15;;;18.20;99.90;;;;;;5078143;28;20024;-63
2022/07/21 06:48:12;;;;;;;26.83;20.25;;;18.00;99.90;;;;;;5078610;28;20040;-63
2022/07/21 06:50:38;;;;;;;25.00;20.23;;;18.10;99.90;;;;;;5078738;28;20037;-62
2022/07/21 06:53:05;;;;;;;24.08;18.90;;;18.20;99.90;;;;;;5077827;28;20049;-63
2022/07/21 06:55:32;;;;;;;21.58;18.38;;;18.20;99.90;;;;;;5078540;28;20027;-63
2022/07/21 06:57:57;;;;;;;20.10;17.42;;;18.10;99.90;;;;;;5077855;28;20048;-61
2022/07/21 07:00:23;;;;;;;20.90;18.45;;;18.20;99.90;;;;;;5078435;28;20040;-62
2022/07/21 07:02:49;;;;;;;24.05;18.63;;;18.20;99.90;;;;;;5077689;28;20045;-61
2022/07/21 07:05:15;;;;;;;23.80;19.80;;;18.30;99.90;;;;;;5078558;28;20293;-62
2022/07/21 07:07:41;;;;;;;23.92;18.77;;;18.20;99.90;;;;;;5078167;28;20118;-64
2022/07/21 07:10:08;;;;;;;22.70;18.00;;;18.30;99.90;;;;;;5078244;28;20044;-64
2022/07/21 07:12:33;;;;;;;25.10;18.88;;;18.30;99.90;;;;;;5078236;28;20028;-65
2022/07/21 07:14:59;;;;;;;28.02;20.08;;;18.40;99.90;;;;;;5078973;28;20036;-67
2022/07/21 07:17:25;;;;;;;27.35;20.73;;;18.50;99.90;;;;;;5080049;28;20036;-66
2022/07/21 07:19:51;;;;;;;29.02;21.42;;;18.60;99.90;;;;;;5079147;28;20048;-68
2022/07/21 07:22:16;;;;;;;29.77;21.52;;;18.60;99.90;;;;;;5078572;28;20363;-68
2022/07/21 07:24:42;;;;;;;26.52;21.02;;;18.50;99.90;;;;;;5077337;28;20036;-66
2022/07/21 07:27:08;;;;;;;27.55;22.42;;;18.40;99.90;;;;;;5078053;28;20132;-67
2022/07/21 07:29:37;;;;;;;31.05;23.08;;;18.40;99.90;;;;;;5078461;28;20033;-67
2022/07/21 07:32:03;;;;;;;31.00;23.85;;;18.50;99.90;;;;;;5079128;28;20040;-69
2022/07/21 07:34:29;;;;;;;31.08;25.00;;;18.60;99.90;;;;;;5078846;28;20033;-68
2022/07/21 07:36:55;;;;;;;30.13;24.33;;;18.70;99.90;;;;;;5078581;28;20037;-69
2022/07/21 07:39:20;;;;;;;36.15;26.90;;;18.70;99.90;;;;;;5077886;28;20032;-67
2022/07/21 07:41:46;;;;;;;36.40;27.15;;;18.70;99.90;;;;;;5078755;28;20028;-73
2022/07/21 07:44:12;;;;;;;38.50;28.27;;;18.70;99.90;;;;;;5079191;28;20060;-65
2022/07/21 07:46:38;;;;;;;37.72;28.95;;;18.80;99.90;;;;;;5079117;28;20397;-68
2022/07/21 07:49:03;;;;;;;40.80;29.60;;;18.90;99.90;;;;;;5077187;28;20039;-68
2022/07/21 07:51:29;;;;;;;42.97;30.42;;;18.80;99.90;;;;;;5078431;28;20060;-70
2022/07/21 07:53:55;;;;;;;39.25;29.05;;;18.90;99.90;;;;;;5078268;28;20028;-65
2022/07/21 07:56:21;;;;;;;46.05;30.98;;;18.90;99.90;;;;;;5079038;28;20320;-66
2022/07/21 07:58:46;;;;;;;40.38;29.02;;;19.00;99.90;;;;;;5077406;28;20020;-69
2022/07/21 08:01:13;;;;;;;45.63;31.25;;;19.00;99.90;;;;;;5078459;28;20048;-68
2022/07/21 08:03:39;;;;;;;40.38;28.85;;;18.90;99.90;;;;;;5077583;28;20056;-66
2022/07/21 08:06:06;;;;;;;46.28;30.33;;;18.90;99.90;;;;;;5077601;28;20025;-67
2022/07/21 08:08:33;;;;;;;42.65;28.65;;;18.90;99.90;;;;;;5078092;28;20124;-69
2022/07/21 08:10:59;;;;;;;35.45;26.02;;;18.90;99.90;;;;;;5076996;28;20071;-62
2022/07/21 08:13:25;;;;;;;35.63;26.17;;;18.70;99.90;;;;;;5077083;28;20081;-67
2022/07/21 08:15:51;;;;;;;36.60;25.83;;;18.60;99.90;;;;;;5076989;28;20085;-64
2022/07/21 08:18:17;;;;;;;35.38;25.88;;;18.70;99.90;;;;;;5077019;28;20039;-62
2022/07/21 08:20:44;;;;;;;39.75;25.92;;;18.60;99.90;;;;;;5076881;28;20024;-61
2022/07/21 08:23:11;;;;;;;34.67;24.73;;;18.50;99.90;;;;;;5076847;28;20295;-63
2022/07/21 08:25:38;;;;;;;36.45;27.00;;;18.60;99.90;;;;;;5076046;28;20462;-63
2022/07/21 08:28:04;;;;;;;36.22;26.20;;;18.70;99.90;;;;;;5076087;28;20075;-62
2022/07/21 08:30:30;;;;;;;39.15;26.15;;;18.80;99.90;;;;;;5077443;28;20075;-62
2022/07/21 08:32:57;;;;;;;38.40;27.23;;;18.90;99.90;;;;;;5076793;28;20029;-61
2022/07/21 08:35:23;;;;;;;37.05;25.85;;;18.90;99.90;;;;;;5076885;28;20039;-61
2022/07/21 08:38:00;;;;;;;35.83;26.08;;;18.90;99.90;;;;;;5076816;28;20033;-60
2022/07/21 08:40:28;;;;;;;36.83;25.45;;;18.90;99.90;;;;;;5077162;28;20033;-63
2022/07/21 08:42:54;;;;;;;36.58;24.02;;;18.90;99.90;;;;;;5076838;28;20029;-61
2022/07/21 08:45:22;;;;;;;39.13;24.20;;;18.80;99.90;;;;;;5076808;28;20059;-59
2022/07/21 08:47:57;;;;;;;30.70;21.63;;;18.70;99.90;;;;;;5076658;28;20148;-58
2022/07/21 08:50:26;;;;;;;33.28;20.98;;;18.50;99.90;;;;;;5075841;28;20028;-57
2022/07/21 08:52:52;;;;;;;28.98;20.45;;;18.40;99.90;;;;;;5076705;28;20044;-57
2022/07/21 08:55:18;;;;;;;33.72;21.33;;;18.30;99.90;;;;;;5076899;28;20052;-57
2022/07/21 08:57:44;;;;;;;28.17;20.58;;;18.50;99.90;;;;;;5077832;28;20055;-60
2022/07/21 09:00:11;;;;;;;21.90;18.67;;;18.50;99.90;;;;;;5080746;28;20384;-62
2022/07/21 09:02:37;;;;;;;26.75;17.25;;;18.40;99.90;;;;;;5081351;28;20035;-60
2022/07/21 09:05:07;;;;;;;26.67;17.20;;;18.30;99.90;;;;;;5080610;28;20024;-59
2022/07/21 09:08:04;;;;;;;25.77;17.73;;;18.40;99.90;;;;;;5080675;28;20040;-60
2022/07/21 09:10:31;;;;;;;25.50;17.02;;;18.60;99.90;;;;;;5081084;28;20124;-61
2022/07/21 09:13:04;;;;;;;19.58;15.07;;;18.60;99.90;;;;;;5080432;28;20052;-63
2022/07/21 09:15:32;;;;;;;20.23;16.52;;;18.60;99.90;;;;;;5081242;28;20454;-60
2022/07/21 09:18:12;;;;;;;19.38;14.23;;;18.60;99.90;;;;;;5062964;28;20028;-59
2022/07/21 09:20:45;;;;;;;17.73;14.48;;;18.70;99.90;;;;;;5080726;28;20297;-62
2022/07/21 09:23:14;;;;;;;17.83;13.20;;;18.80;99.90;;;;;;5079672;28;20033;-58
2022/07/21 09:25:44;;;;;;;16.48;12.05;;;18.80;99.90;;;;;;5080270;28;20388;-62
2022/07/21 09:28:21;;;;;;;14.75;10.90;;;18.80;99.90;;;;;;5080615;28;20028;-63
2022/07/21 09:30:58;;;;;;;13.40;10.90;;;18.70;99.90;;;;;;5080158;28;20033;-64
2022/07/21 09:33:33;;;;;;;13.45;10.95;;;18.70;99.90;;;;;;5080120;28;20035;-64
2022/07/21 09:36:20;;;;;;;14.35;11.32;;;18.70;99.90;;;;;;5079384;28;20024;-64
2022/07/21 09:38:58;;;;;;;13.35;11.30;;;18.70;99.90;;;;;;5080361;28;20043;-64
2022/07/21 09:41:25;;;;;;;13.95;11.85;;;19.00;99.90;;;;;;5080033;28;20100;-68
2022/07/21 09:43:56;;;;;;;15.13;10.75;;;19.30;99.90;;;;;;5079991;28;20278;-69
2022/07/21 09:46:24;;;;;;;13.75;9.98;;;19.60;99.90;;;;;;5080009;28;20028;-64
2022/07/21 09:48:52;;;;;;;14.82;10.15;;;19.60;99.90;;;;;;5079947;28;20039;-61
2022/07/21 09:51:41;;;;;;;11.43;9.07;;;20.00;99.90;;;;;;5079797;28;20028;-67
2022/07/21 09:54:13;;;;;;;12.18;9.25;;;19.80;99.90;;;;;;5080061;28;20098;-66
2022/07/21 09:56:45;;;;;;;18.23;9.90;;;19.50;99.90;;;;;;5079550;28;20056;-63
2022/07/21 09:59:12;;;;;;;12.48;9.68;;;19.60;99.90;;;;;;5079990;28;20335;-60
2022/07/21 10:01:38;;;;;;;13.02;8.50;;;19.50;99.90;;;;;;5079646;28;20097;-62
2022/07/21 10:04:05;;;;;;;15.15;9.25;;;19.50;99.90;;;;;;5079589;28;20396;-60
2022/07/21 10:06:36;;;;;;;12.80;8.50;;;19.40;99.90;;;;;;5079536;28;20480;-59
2022/07/21 10:09:05;;;;;;;15.35;9.68;;;19.70;99.90;;;;;;5079151;28;20028;-62
2022/07/21 10:11:31;;;;;;;12.00;8.80;;;19.70;99.90;;;;;;5078695;28;20111;-59
2022/07/21 10:13:57;;;;;;;10.32;7.05;;;19.60;99.90;;;;;;5079297;28;20384;-58
2022/07/21 10:16:24;;;;;;;13.65;8.02;;;19.50;99.90;;;;;;5078913;28;20384;-60
2022/07/21 10:18:59;;;;;;;10.80;7.80;;;19.50;99.90;;;;;;5078587;28;20048;-59
2022/07/21 10:22:09;;;;;;;11.35;7.22;;;19.50;99.90;;;;;;5079307;28;20418;-59
2022/07/21 10:24:36;;;;;;;14.50;7.88;;;19.60;99.90;;;;;;5078680;28;20135;-58
2022/07/21 10:27:05;;;;;;;11.68;6.50;;;19.70;99.90;;;;;;5061744;28;20032;-60
2022/07/21 10:29:56;;;;;;;11.00;6.30;;;19.50;99.90;;;;;;5079056;28;20102;-59
2022/07/21 10:32:36;;;;;;;9.60;6.70;;;19.10;99.90;;;;;;5078743;28;20135;-60
2022/07/21 10:35:26;;;;;;;7.97;6.20;;;19.30;99.90;;;;;;5079061;28;20307;-61
2022/07/21 10:37:52;;;;;;;10.65;6.60;;;18.90;99.90;;;;;;5079091;28;20112;-58
2022/07/21 10:40:21;;;;;;;10.63;8.27;;;18.90;99.90;;;;;;5078161;28;20032;-58
2022/07/21 10:42:59;;;;;;;8.73;7.57;;;19.00;99.90;;;;;;5079159;28;20064;-61
2022/07/21 10:45:45;;;;;;;12.63;8.50;;;18.90;99.90;;;;;;5078858;28;20024;-59
2022/07/21 10:48:39;;;;;;;12.90;8.52;;;18.80;99.90;;;;;;5078817;28;20034;-60
2022/07/21 10:51:14;;;;;;;9.10;7.03;;;18.80;99.90;;;;;;5078704;28;20037;-61
2022/07/21 10:53:40;;;;;;;11.88;7.90;;;18.70;99.90;;;;;;5079032;28;20092;-61
2022/07/21 10:56:08;;;;;;;10.43;8.30;;;18.50;99.90;;;;;;5077750;28;20047;-60
2022/07/21 10:58:37;;;;;;;12.63;7.80;;;18.50;99.90;;;;;;5077809;28;20044;-62
2022/07/21 11:01:14;;;;;;;10.13;7.20;;;18.40;99.90;;;;;;5078512;28;20105;-60
2022/07/21 11:03:42;;;;;;;8.52;7.20;;;18.40;99.90;;;;;;5078530;28;20090;-58
2022/07/21 11:06:17;;;;;;;11.43;7.47;;;18.40;99.90;;;;;;5078344;28;20032;-64
2022/07/21 11:08:45;;;;;;;8.88;7.25;;;18.40;99.90;;;;;;5078232;28;20047;-60
2022/07/21 11:11:20;;;;;;;9.70;7.03;;;18.50;99.90;;;;;;5078312;28;20029;-62
2022/07/21 11:14:18;;;;;;;9.52;7.55;;;18.50;99.90;;;;;;5078127;28;20024;-67
2022/07/21 11:16:52;;;;;;;8.70;7.50;;;18.50;99.90;;;;;;5077658;28;20108;-61
2022/07/21 11:19:53;;;;;;;10.38;7.57;;;18.40;99.90;;;;;;5078326;28;20024;-59
2022/07/21 11:22:21;;;;;;;14.73;7.72;;;18.30;99.90;;;;;;5078043;28;20040;-69
2022/07/21 11:25:03;;;;;;;9.18;7.65;;;18.30;99.90;;;;;;5078304;28;20047;-61
2022/07/21 11:27:32;;;;;;;13.45;8.25;;;18.40;99.90;;;;;;5078579;28;20444;-63
2022/07/21 11:30:01;;;;;;;10.95;7.88;;;18.50;99.90;;;;;;5077826;28;20058;-62
2022/07/21 11:32:27;;;;;;;15.65;8.00;;;18.60;99.90;;;;;;5078212;28;20395;-62
2022/07/21 11:34:54;;;;;;;12.02;7.88;;;18.60;99.90;;;;;;5077071;28;20044;-63
2022/07/21 11:37:35;;;;;;;10.07;7.45;;;18.60;99.90;;;;;;5077829;28;20044;-63
2022/07/21 11:40:02;;;;;;;9.23;6.18;;;18.70;99.90;;;;;;5076914;28;20300;-64
2022/07/21 11:42:30;;;;;;;9.38;6.72;;;18.50;99.90;;;;;;5077770;28;20044;-65
2022/07/21 11:44:57;;;;;;;9.63;7.35;;;18.50;99.90;;;;;;5076878;28;20085;-66
2022/07/21 11:47:26;;;;;;;8.30;6.28;;;18.50;99.90;;;;;;5077604;28;20036;-59
2022/07/21 11:49:54;;;;;;;9.48;6.38;;;18.50;99.90;;;;;;5077523;28;20060;-61
2022/07/21 11:52:25;;;;;;;7.57;6.00;;;18.50;99.90;;;;;;5077740;28;20048;-60
2022/07/21 11:54:53;;;;;;;13.30;5.67;;;18.50;99.90;;;;;;5077535;28;20048;-64
2022/07/21 11:57:20;;;;;;;8.35;5.70;;;18.50;99.90;;;;;;5076686;28;20060;-64
2022/07/21 11:59:48;;;;;;;9.60;5.25;;;18.60;99.90;;;;;;5077348;28;20040;-59
2022/07/21 12:02:22;;;;;;;6.38;4.82;;;18.50;99.90;;;;;;5077323;28;20107;-60
2022/07/21 12:04:51;;;;;;;10.95;5.88;;;18.50;99.90;;;;;;5077411;28;20043;-58
2022/07/21 12:07:25;;;;;;;8.05;5.20;;;18.50;99.90;;;;;;5077270;28;20041;-60
2022/07/21 12:09:53;;;;;;;10.95;5.70;;;18.50;99.90;;;;;;5077203;28;20074;-60
2022/07/21 12:12:36;;;;;;;9.57;6.10;;;18.50;99.90;;;;;;5077846;28;20094;-62
2022/07/21 12:15:39;;;;;;;7.82;5.90;;;18.50;99.90;;;;;;5077143;28;20115;-65
2022/07/21 12:18:07;;;;;;;11.55;6.15;;;18.90;99.90;;;;;;5075683;28;20076;-61
2022/07/21 12:20:39;;;;;;;8.18;5.50;;;19.10;99.90;;;;;;5077062;28;20309;-61
2022/07/21 12:23:29;;;;;;;10.50;5.43;;;19.20;99.90;;;;;;5076346;28;20043;-59
2022/07/21 12:25:58;;;;;;;7.63;4.90;;;19.20;99.90;;;;;;5076950;28;20047;-59
2022/07/21 12:28:47;;;;;;;5.78;5.18;;;19.10;99.90;;;;;;5076295;28;20043;-57
2022/07/21 12:31:20;;;;;;;11.05;5.68;;;19.20;99.90;;;;;;5076954;28;20037;-58
2022/07/21 12:33:46;;;;;;;13.40;5.88;;;19.10;99.90;;;;;;5076956;28;20032;-60
2022/07/21 12:36:12;;;;;;;13.70;6.13;;;19.10;99.90;;;;;;5076130;28;20033;-61
2022/07/21 12:38:50;;;;;;;11.93;6.78;;;19.00;99.90;;;;;;5076785;28;20028;-61
2022/07/21 12:41:19;;;;;;;10.68;6.65;;;19.30;99.90;;;;;;5076919;28;20146;-57
2022/07/21 12:43:58;;;;;;;10.75;5.80;;;19.40;99.90;;;;;;5076089;28;20033;-57
2022/07/21 12:46:30;;;;;;;11.23;5.68;;;19.50;99.90;;;;;;5076848;28;20090;-60